Time;durP1;ratioP1;P1;durP2;ratioP2;P2;SDS_P1;SDS_P2;PMS_P1;PMS_P2;Temp;Humidity;BMP_temperature;BMP_pressure;BME280_temperature;BME280_humidity;BME280_pressure;Samples;Min_cycle;Max_cycle;Signal;HPM_P1;HPM_P2
2024/04/14 00:01:22;;;;;;;24.67;17.02;;;15.90;99.90;;;;;;5369150;26;20408;-84
2024/04/14 00:03:56;;;;;;;24.73;16.80;;;15.80;99.90;;;;;;5398976;26;19996;-87
2024/04/14 00:06:23;;;;;;;19.88;16.73;;;15.80;99.90;;;;;;5370153;26;20010;-84
2024/04/14 00:08:51;;;;;;;28.00;18.20;;;15.70;99.90;;;;;;5428063;26;20464;-87
2024/04/14 00:11:18;;;;;;;24.98;18.40;;;15.70;99.90;;;;;;5387854;26;20012;-88
2024/04/14 00:13:44;;;;;;;29.25;18.60;;;15.70;99.90;;;;;;5364108;26;20075;-84
2024/04/14 00:16:12;;;;;;;27.35;17.48;;;15.70;99.90;;;;;;5363487;26;20005;-86
2024/04/14 00:18:40;;;;;;;27.00;17.35;;;15.70;99.90;;;;;;5416260;26;19999;-88
2024/04/14 00:21:06;;;;;;;26.38;18.60;;;15.70;99.90;;;;;;5413919;26;20000;-87
2024/04/14 00:23:33;;;;;;;21.80;17.98;;;15.70;99.90;;;;;;5399461;26;20004;-87
2024/04/14 00:25:59;;;;;;;28.42;18.00;;;15.80;99.90;;;;;;5363375;26;20052;-87
2024/04/14 00:28:25;;;;;;;37.88;21.77;;;15.70;99.90;;;;;;5352700;26;20330;-87
2024/04/14 00:30:52;;;;;;;19.63;17.45;;;15.80;99.90;;;;;;5389365;26;20341;-87
2024/04/14 00:33:18;;;;;;;23.10;17.08;;;15.90;99.90;;;;;;5418183;26;20000;-87
2024/04/14 00:35:45;;;;;;;23.50;16.98;;;15.90;99.90;;;;;;5387925;26;19999;-89
2024/04/14 00:38:12;;;;;;;22.90;17.38;;;15.90;99.90;;;;;;5387179;26;20049;-88
2024/04/14 00:40:38;;;;;;;24.90;17.45;;;15.90;99.90;;;;;;5416437;26;19995;-81
2024/04/14 00:43:05;;;;;;;24.40;17.35;;;15.90;99.90;;;;;;5388518;26;20016;-89
2024/04/14 00:45:31;;;;;;;23.13;17.15;;;15.90;99.90;;;;;;5361520;26;20142;-86
2024/04/14 00:47:57;;;;;;;22.70;17.80;;;15.90;99.90;;;;;;5396467;26;20036;-87
2024/04/14 00:50:25;;;;;;;23.48;17.80;;;15.90;99.90;;;;;;5377522;26;20008;-84
2024/04/14 00:52:52;;;;;;;24.23;18.13;;;15.90;99.90;;;;;;5370771;26;20005;-83
2024/04/14 00:55:19;;;;;;;25.65;18.40;;;15.90;99.90;;;;;;5359144;26;19997;-82
2024/04/14 00:57:47;;;;;;;20.67;16.83;;;15.80;99.90;;;;;;5393736;26;20065;-85
2024/04/14 01:00:15;;;;;;;25.65;18.65;;;15.80;99.90;;;;;;5400990;26;19996;-87
2024/04/14 01:02:42;;;;;;;31.67;18.88;;;15.80;99.90;;;;;;5376002;26;20013;-87
2024/04/14 01:05:08;;;;;;;25.13;18.65;;;15.80;99.90;;;;;;5367785;26;20000;-87
2024/04/14 01:07:37;;;;;;;23.73;18.17;;;15.70;99.90;;;;;;5348310;26;20001;-86
2024/04/14 01:10:03;;;;;;;24.00;18.85;;;15.60;99.90;;;;;;5367687;26;20008;-86
2024/04/14 01:12:34;;;;;;;26.27;18.67;;;15.50;99.90;;;;;;5348040;26;20359;-88
2024/04/14 01:15:01;;;;;;;26.15;19.58;;;15.40;99.90;;;;;;5350752;26;20076;-88
2024/04/14 01:17:27;;;;;;;25.63;19.05;;;15.30;99.90;;;;;;5347847;26;20001;-87
2024/04/14 01:19:54;;;;;;;22.25;18.75;;;15.10;99.90;;;;;;5365058;26;20407;-88
2024/04/14 01:22:20;;;;;;;29.45;20.33;;;15.10;99.90;;;;;;5360007;26;20001;-88
2024/04/14 01:24:48;;;;;;;23.88;19.48;;;15.00;99.90;;;;;;5355389;26;20008;-88
2024/04/14 01:27:15;;;;;;;25.80;18.70;;;15.00;99.90;;;;;;5336458;26;20005;-88
2024/04/14 01:29:41;;;;;;;24.23;19.30;;;14.90;99.90;;;;;;5353713;26;20453;-87
2024/04/14 01:32:08;;;;;;;24.13;18.77;;;14.90;99.90;;;;;;5370475;26;20332;-88
2024/04/14 01:34:34;;;;;;;24.27;19.13;;;14.90;99.90;;;;;;5320257;26;20001;-88
2024/04/14 01:37:00;;;;;;;24.85;19.02;;;14.80;99.90;;;;;;5321055;26;20016;-88
2024/04/14 01:39:26;;;;;;;28.77;19.23;;;14.80;99.90;;;;;;5365608;26;20006;-88
2024/04/14 01:41:54;;;;;;;30.60;19.90;;;14.80;99.90;;;;;;5354308;26;20000;-88
2024/04/14 01:44:20;;;;;;;27.90;18.95;;;14.70;99.90;;;;;;5350483;26;20005;-89
2024/04/14 01:46:46;;;;;;;26.77;19.92;;;14.60;99.90;;;;;;5325215;26;20044;-88
2024/04/14 01:49:13;;;;;;;26.52;19.27;;;14.60;99.90;;;;;;5349736;26;20024;-88
2024/04/14 01:51:39;;;;;;;29.98;19.90;;;14.50;99.90;;;;;;5328518;26;20016;-88
2024/04/14 01:54:05;;;;;;;27.02;20.25;;;14.40;99.90;;;;;;5380624;26;20024;-88
2024/04/14 01:56:32;;;;;;;26.88;19.77;;;14.40;99.90;;;;;;5328432;26;20003;-86
2024/04/14 01:58:58;;;;;;;27.05;18.95;;;14.40;99.90;;;;;;5350548;26;20012;-87
2024/04/14 02:01:24;;;;;;;32.25;19.08;;;14.40;99.90;;;;;;5349157;26;20055;-88
2024/04/14 02:03:50;;;;;;;29.65;19.63;;;14.30;99.90;;;;;;5353440;26;19992;-88
2024/04/14 02:06:17;;;;;;;32.92;22.25;;;14.40;99.90;;;;;;5348862;26;20000;-88
2024/04/14 02:08:43;;;;;;;32.50;22.15;;;14.30;99.90;;;;;;5348274;26;20036;-88
2024/04/14 02:11:09;;;;;;;42.30;23.73;;;14.30;99.90;;;;;;5330107;26;20074;-88
2024/04/14 02:13:36;;;;;;;39.83;24.42;;;14.30;99.90;;;;;;5367162;26;20005;-87
2024/04/14 02:16:02;;;;;;;41.70;23.02;;;14.20;99.90;;;;;;5347930;26;20007;-87
2024/04/14 02:18:28;;;;;;;39.08;24.60;;;14.20;99.90;;;;;;5320724;26;20438;-88
2024/04/14 02:20:55;;;;;;;38.75;25.05;;;14.20;99.90;;;;;;5350545;26;20003;-88
2024/04/14 02:23:23;;;;;;;41.33;23.98;;;14.20;99.90;;;;;;5359042;26;20004;-88
2024/04/14 02:26:03;;;;;;;32.80;21.98;;;14.10;99.90;;;;;;5323926;26;20029;-88
2024/04/14 02:28:30;;;;;;;31.80;21.17;;;14.10;99.90;;;;;;5372787;26;20008;-88
2024/04/14 02:30:56;;;;;;;32.63;20.75;;;14.20;99.90;;;;;;5332659;26;20008;-88
2024/04/14 02:33:22;;;;;;;35.50;20.85;;;14.20;99.90;;;;;;5348513;26;20008;-88
2024/04/14 02:35:57;;;;;;;32.17;19.25;;;14.10;99.90;;;;;;5348201;26;20038;-87
2024/04/14 02:38:24;;;;;;;24.13;19.05;;;14.10;99.90;;;;;;5369536;26;20007;-88
2024/04/14 02:40:58;;;;;;;29.50;19.52;;;14.20;99.90;;;;;;5348927;26;20025;-88
2024/04/14 02:43:25;;;;;;;23.63;19.30;;;14.10;99.90;;;;;;5348370;26;20013;-87
2024/04/14 02:45:51;;;;;;;25.83;18.88;;;14.20;99.90;;;;;;5396633;26;20009;-88
2024/04/14 02:48:18;;;;;;;28.35;21.00;;;14.20;99.90;;;;;;5347296;26;20004;-88
2024/04/14 02:50:45;;;;;;;23.85;18.50;;;14.20;99.90;;;;;;5343090;26;20004;-87
2024/04/14 02:53:12;;;;;;;25.33;18.98;;;14.20;99.90;;;;;;5337489;26;20044;-88
2024/04/14 02:55:39;;;;;;;28.02;18.45;;;14.20;99.90;;;;;;5342415;26;20004;-88
2024/04/14 02:58:07;;;;;;;30.42;18.65;;;14.20;99.90;;;;;;5324245;26;19997;-88
2024/04/14 03:00:33;;;;;;;22.90;18.40;;;14.30;99.90;;;;;;5351885;26;20018;-88
2024/04/14 03:02:59;;;;;;;24.30;18.48;;;14.20;99.90;;;;;;5351281;26;20485;-88
2024/04/14 03:05:26;;;;;;;21.38;18.45;;;14.20;99.90;;;;;;5346581;26;20083;-87
2024/04/14 03:07:53;;;;;;;23.20;18.63;;;14.30;99.90;;;;;;5357524;26;19997;-89
2024/04/14 03:10:20;;;;;;;25.88;19.02;;;14.30;99.90;;;;;;5339539;26;20000;-88
2024/04/14 03:12:46;;;;;;;21.85;18.90;;;14.40;99.90;;;;;;5347764;26;19997;-88
2024/04/14 03:15:12;;;;;;;27.10;19.98;;;14.40;99.90;;;;;;5371889;26;20018;-88
2024/04/14 03:17:39;;;;;;;26.52;20.55;;;14.40;99.90;;;;;;5323646;26;20001;-88
2024/04/14 03:20:06;;;;;;;25.70;19.67;;;14.40;99.90;;;;;;5380323;26;20018;-88
2024/04/14 03:22:32;;;;;;;28.75;20.13;;;14.50;99.90;;;;;;5379035;26;20000;-88
2024/04/14 03:24:59;;;;;;;26.42;19.13;;;14.50;99.90;;;;;;5407515;26;20018;-88
2024/04/14 03:27:25;;;;;;;21.50;19.15;;;14.60;99.90;;;;;;5385714;26;19999;-87
2024/04/14 03:29:52;;;;;;;24.33;19.50;;;14.60;99.90;;;;;;5342868;26;20461;-88
2024/04/14 03:32:18;;;;;;;26.42;19.60;;;14.70;99.90;;;;;;5396206;26;20008;-88
2024/04/14 03:34:44;;;;;;;25.23;20.38;;;14.70;99.90;;;;;;5323653;26;20441;-88
2024/04/14 03:37:11;;;;;;;27.45;19.20;;;14.70;99.90;;;;;;5353274;26;20004;-88
2024/04/14 03:39:37;;;;;;;21.27;18.98;;;14.70;99.90;;;;;;5341347;26;20004;-88
2024/04/14 03:42:04;;;;;;;27.95;19.20;;;14.70;99.90;;;;;;5356635;26;19995;-88
2024/04/14 03:44:30;;;;;;;22.20;18.50;;;14.60;99.90;;;;;;5374463;26;20505;-88
2024/04/14 03:46:57;;;;;;;23.80;18.90;;;14.70;99.90;;;;;;5382168;26;20014;-88
2024/04/14 03:49:23;;;;;;;23.85;18.25;;;14.70;99.90;;;;;;5429253;26;20505;-88
2024/04/14 03:51:50;;;;;;;22.02;17.40;;;14.70;99.90;;;;;;5359843;26;20008;-88
2024/04/14 03:54:17;;;;;;;23.48;18.30;;;14.70;99.90;;;;;;5342677;26;20004;-88
2024/04/14 03:56:43;;;;;;;20.05;18.15;;;14.80;99.90;;;;;;5355079;26;20001;-88
2024/04/14 03:59:10;;;;;;;21.73;18.67;;;14.90;99.90;;;;;;5375711;26;20010;-88
2024/04/14 04:01:37;;;;;;;23.50;18.88;;;14.90;99.90;;;;;;5351919;26;20017;-87
2024/04/14 04:04:03;;;;;;;20.55;18.52;;;15.00;99.90;;;;;;5351373;26;20436;-87
2024/04/14 04:06:30;;;;;;;21.38;19.08;;;15.00;99.90;;;;;;5359439;26;20000;-88
2024/04/14 04:08:56;;;;;;;20.58;18.67;;;15.00;99.90;;;;;;5354061;26;20832;-88
2024/04/14 04:11:22;;;;;;;23.52;19.58;;;15.00;99.90;;;;;;5352003;26;20338;-87
2024/04/14 04:13:48;;;;;;;22.88;20.52;;;15.00;99.90;;;;;;5351143;26;20008;-88
2024/04/14 04:16:15;;;;;;;21.23;19.17;;;15.00;99.90;;;;;;5322474;26;19997;-88
2024/04/14 04:18:41;;;;;;;20.67;18.63;;;15.00;99.90;;;;;;5398286;26;20014;-87
2024/04/14 04:21:12;;;;;;;23.10;20.58;;;14.90;99.90;;;;;;5379541;26;19992;-87
2024/04/14 04:23:38;;;;;;;26.13;23.23;;;14.90;99.90;;;;;;5369715;26;20516;-88
2024/04/14 04:26:04;;;;;;;40.80;28.60;;;14.80;99.90;;;;;;5321311;26;20370;-88
2024/04/14 04:28:31;;;;;;;46.47;31.35;;;14.80;99.90;;;;;;5354960;26;20046;-88
2024/04/14 04:31:08;;;;;;;51.47;31.75;;;14.80;99.90;;;;;;5350741;26;19997;-88
2024/04/14 04:33:35;;;;;;;50.92;32.35;;;14.80;99.90;;;;;;5349430;26;20453;-87
2024/04/14 04:36:01;;;;;;;42.70;29.48;;;14.70;99.90;;;;;;5320713;26;20484;-88
2024/04/14 04:38:27;;;;;;;37.75;27.17;;;14.80;99.90;;;;;;5343950;26;19997;-88
2024/04/14 04:40:53;;;;;;;33.50;25.58;;;14.70;99.90;;;;;;5339320;26;20005;-88
2024/04/14 04:43:22;;;;;;;30.58;24.38;;;14.70;99.90;;;;;;5344057;26;20013;-88
2024/04/14 04:45:48;;;;;;;28.58;23.27;;;14.70;99.90;;;;;;5353368;26;19997;-88
2024/04/14 04:48:15;;;;;;;27.88;24.13;;;14.80;99.90;;;;;;5355151;26;20417;-88
2024/04/14 04:50:45;;;;;;;28.45;22.85;;;14.80;99.90;;;;;;5353720;26;20001;-87
2024/04/14 04:53:13;;;;;;;26.15;23.30;;;14.90;99.90;;;;;;5352660;26;19996;-88
2024/04/14 04:55:39;;;;;;;24.75;22.20;;;14.90;99.90;;;;;;5354511;26;19996;-88
2024/04/14 04:58:06;;;;;;;25.10;22.65;;;15.00;99.90;;;;;;5353748;26;20015;-88
2024/04/14 05:00:32;;;;;;;25.00;22.00;;;15.10;99.90;;;;;;5348833;26;20001;-88
2024/04/14 05:02:59;;;;;;;24.90;20.80;;;15.40;99.90;;;;;;5348089;26;20466;-88
2024/04/14 05:05:26;;;;;;;22.73;20.50;;;16.20;99.90;;;;;;5349342;26;20432;-88
2024/04/14 05:07:52;;;;;;;28.00;23.20;;;17.30;99.90;;;;;;5340646;26;20018;-88
2024/04/14 05:10:19;;;;;;;28.80;26.08;;;18.40;99.90;;;;;;5363240;26;20012;-88
2024/04/14 05:12:45;;;;;;;28.55;26.10;;;19.30;99.90;;;;;;5323548;26;19997;-88
2024/04/14 05:15:12;;;;;;;30.95;27.95;;;20.00;99.90;;;;;;5354849;26;20000;-88
2024/04/14 05:17:38;;;;;;;33.33;29.77;;;20.50;99.90;;;;;;5353776;26;20418;-88
2024/04/14 05:20:05;;;;;;;34.35;31.20;;;21.40;99.90;;;;;;5354559;26;20004;-88
2024/04/14 05:22:32;;;;;;;35.70;32.63;;;22.30;99.90;;;;;;5348718;26;20000;-89
2024/04/14 05:24:58;;;;;;;35.28;32.20;;;21.80;99.90;;;;;;5320538;26;20011;-88
2024/04/14 05:27:24;;;;;;;35.58;32.55;;;21.90;99.90;;;;;;5320484;26;19997;-88
2024/04/14 05:29:51;;;;;;;34.95;32.03;;;22.30;99.90;;;;;;5320088;26;20008;-88
2024/04/14 05:32:19;;;;;;;37.00;33.90;;;22.90;99.90;;;;;;5344925;26;20015;-88
2024/04/14 05:34:45;;;;;;;36.75;33.80;;;23.30;99.90;;;;;;5354442;26;20040;-88
2024/04/14 05:37:11;;;;;;;37.65;33.95;;;23.30;99.90;;;;;;5355173;26;19992;-88
2024/04/14 05:39:38;;;;;;;37.00;33.72;;;23.30;99.90;;;;;;5348432;26;20454;-88
2024/04/14 05:42:04;;;;;;;37.45;33.92;;;23.90;99.90;;;;;;5333924;26;20299;-88
2024/04/14 05:44:34;;;;;;;38.03;34.80;;;23.60;99.90;;;;;;5322117;26;20000;-88
2024/04/14 05:47:00;;;;;;;38.10;34.70;;;23.70;99.90;;;;;;5349224;26;20138;-89
2024/04/14 05:49:27;;;;;;;38.80;35.40;;;24.30;99.90;;;;;;5348788;26;20047;-88
2024/04/14 05:51:54;;;;;;;37.65;34.65;;;24.40;99.90;;;;;;5369515;26;20001;-88
2024/04/14 05:54:20;;;;;;;36.47;33.22;;;23.90;99.90;;;;;;5319991;26;20000;-88
2024/04/14 05:56:49;;;;;;;36.55;33.25;;;23.70;99.90;;;;;;5334100;26;20001;-88
2024/04/14 05:59:15;;;;;;;35.50;32.85;;;23.60;99.90;;;;;;5381447;26;20003;-88
2024/04/14 06:01:42;;;;;;;35.80;32.65;;;23.60;99.90;;;;;;5351144;26;20051;-88
2024/04/14 06:04:11;;;;;;;35.50;32.05;;;23.60;99.90;;;;;;5347615;26;20033;-87
2024/04/14 06:06:38;;;;;;;35.63;32.35;;;23.60;99.90;;;;;;5318629;26;20000;-87
2024/04/14 06:09:04;;;;;;;35.05;32.20;;;23.30;99.90;;;;;;5318245;26;20042;-87
2024/04/14 06:11:30;;;;;;;35.47;32.60;;;23.10;99.90;;;;;;5323560;26;20016;-89
2024/04/14 06:13:57;;;;;;;35.05;32.30;;;23.40;99.90;;;;;;5318376;26;20001;-87
2024/04/14 06:16:23;;;;;;;35.42;32.80;;;23.40;99.90;;;;;;5345982;26;20000;-88
2024/04/14 06:18:49;;;;;;;35.08;32.40;;;23.40;99.90;;;;;;5340261;26;20005;-87
2024/04/14 06:21:16;;;;;;;34.10;31.40;;;23.40;99.90;;;;;;5319129;26;20004;-89
2024/04/14 06:23:42;;;;;;;34.20;31.45;;;23.20;99.90;;;;;;5319225;26;20011;-88
2024/04/14 06:26:08;;;;;;;34.35;31.67;;;23.10;99.90;;;;;;5328188;26;20004;-88
2024/04/14 06:28:35;;;;;;;35.78;32.50;;;23.00;99.90;;;;;;5352568;26;20023;-87
2024/04/14 06:31:02;;;;;;;34.95;31.83;;;23.10;99.90;;;;;;5352842;26;20008;-89
2024/04/14 06:33:29;;;;;;;34.92;32.22;;;23.10;99.90;;;;;;5353126;26;20038;-87
2024/04/14 06:35:57;;;;;;;34.95;32.00;;;23.20;99.90;;;;;;5347158;26;20012;-90
2024/04/14 06:38:24;;;;;;;34.17;31.35;;;23.20;99.90;;;;;;5347603;26;20033;-88
2024/04/14 06:40:50;;;;;;;34.90;31.75;;;23.40;99.90;;;;;;5346729;26;20005;-88
2024/04/14 06:43:17;;;;;;;35.53;32.20;;;23.50;99.90;;;;;;5346962;26;20016;-88
2024/04/14 06:45:48;;;;;;;33.97;31.48;;;23.60;99.90;;;;;;5347256;26;20004;-89
2024/04/14 06:48:16;;;;;;;33.55;31.05;;;23.50;99.90;;;;;;5358325;26;20000;-88
2024/04/14 06:50:42;;;;;;;35.35;32.55;;;23.90;99.90;;;;;;5386522;26;20014;-87
2024/04/14 06:53:09;;;;;;;35.28;32.28;;;24.10;99.90;;;;;;5386550;26;20003;-90
2024/04/14 06:55:35;;;;;;;35.85;32.53;;;24.70;99.90;;;;;;5386809;26;19999;-84
2024/04/14 06:58:01;;;;;;;34.70;31.80;;;24.90;99.90;;;;;;5383486;26;20018;-86
2024/04/14 07:00:28;;;;;;;34.97;31.98;;;25.20;99.90;;;;;;5351246;26;20016;-85
2024/04/14 07:02:54;;;;;;;34.00;31.17;;;25.10;99.90;;;;;;5351441;26;20386;-84
2024/04/14 07:05:20;;;;;;;32.80;30.20;;;24.90;99.90;;;;;;5351057;26;20015;-84
2024/04/14 07:07:47;;;;;;;34.15;31.35;;;24.90;99.90;;;;;;5350887;26;20448;-88
2024/04/14 07:10:14;;;;;;;33.38;30.95;;;24.40;99.90;;;;;;5386656;26;20051;-90
2024/04/14 07:12:40;;;;;;;33.70;31.25;;;24.30;99.90;;;;;;5387593;26;20007;-90
2024/04/14 07:15:07;;;;;;;34.40;31.60;;;24.50;99.90;;;;;;5388344;26;20014;-90
2024/04/14 07:17:34;;;;;;;34.28;31.25;;;24.40;99.90;;;;;;5387174;26;19999;-89
2024/04/14 07:20:00;;;;;;;34.03;31.17;;;24.60;99.90;;;;;;5387447;26;20058;-91
2024/04/14 07:22:27;;;;;;;34.10;31.35;;;24.80;99.90;;;;;;5387355;26;20000;-89
2024/04/14 07:24:53;;;;;;;34.08;30.80;;;25.20;99.90;;;;;;5386607;26;20006;-87
2024/04/14 07:27:19;;;;;;;34.15;31.20;;;25.20;99.90;;;;;;5385445;26;20008;-85
2024/04/14 07:29:46;;;;;;;33.67;31.08;;;24.90;99.90;;;;;;5359264;26;20019;-83
2024/04/14 07:32:12;;;;;;;33.58;30.88;;;25.00;99.90;;;;;;5350677;26;20134;-84
2024/04/14 07:34:39;;;;;;;33.17;30.67;;;25.10;99.90;;;;;;5351689;26;20000;-88
2024/04/14 07:37:05;;;;;;;34.40;31.50;;;25.20;99.90;;;;;;5351384;26;20000;-87
2024/04/14 07:39:31;;;;;;;32.67;29.92;;;25.30;99.90;;;;;;5374264;26;20080;-87
2024/04/14 07:42:00;;;;;;;33.22;30.73;;;25.50;99.90;;;;;;5389319;26;20000;-86
2024/04/14 07:44:26;;;;;;;33.85;31.25;;;25.60;99.90;;;;;;5389514;26;19999;-87
2024/04/14 07:46:53;;;;;;;34.45;31.70;;;25.70;99.90;;;;;;5389374;26;20011;-86
2024/04/14 07:49:19;;;;;;;34.42;31.85;;;25.60;99.90;;;;;;5369654;26;20004;-87
2024/04/14 07:51:46;;;;;;;34.05;31.00;;;25.50;99.90;;;;;;5354342;26;20015;-86
2024/04/14 07:54:19;;;;;;;33.85;30.88;;;25.30;99.90;;;;;;5355894;26;20004;-86
2024/04/14 07:56:45;;;;;;;33.67;31.27;;;25.30;99.90;;;;;;5355479;26;20000;-88
2024/04/14 07:59:15;;;;;;;33.45;30.77;;;25.30;99.90;;;;;;5372829;26;20905;-86
2024/04/14 08:01:41;;;;;;;32.35;30.08;;;25.40;99.90;;;;;;5390646;26;20011;-88
2024/04/14 08:04:08;;;;;;;32.88;30.17;;;25.90;99.90;;;;;;5390534;26;20011;-87
2024/04/14 08:06:34;;;;;;;33.33;30.73;;;25.90;99.90;;;;;;5390615;26;19999;-86
2024/04/14 08:09:01;;;;;;;32.97;30.45;;;25.90;99.90;;;;;;5390630;26;20072;-87
2024/04/14 08:11:27;;;;;;;33.00;30.60;;;25.60;99.90;;;;;;5358743;26;20073;-87
2024/04/14 08:13:53;;;;;;;33.78;31.05;;;25.20;99.90;;;;;;5355521;26;20426;-87
2024/04/14 08:16:20;;;;;;;33.60;30.90;;;25.00;99.90;;;;;;5356534;26;20000;-91
2024/04/14 08:18:47;;;;;;;33.22;30.63;;;25.20;99.90;;;;;;5357075;26;20004;-92
2024/04/14 08:21:15;;;;;;;33.88;31.23;;;25.30;99.90;;;;;;5357193;26;20016;-90
2024/04/14 08:23:42;;;;;;;35.05;32.10;;;25.40;99.90;;;;;;5357234;26;20041;-91
2024/04/14 08:26:08;;;;;;;35.63;32.78;;;25.40;99.90;;;;;;5357845;26;20004;-91
2024/04/14 08:28:35;;;;;;;33.72;31.20;;;25.50;99.90;;;;;;5357182;26;20019;-90
2024/04/14 08:31:01;;;;;;;34.63;31.60;;;25.50;99.90;;;;;;5356621;26;20000;-91
2024/04/14 08:33:28;;;;;;;34.13;31.27;;;25.70;99.90;;;;;;5357632;26;20000;-90
2024/04/14 08:35:54;;;;;;;33.20;30.70;;;25.60;99.90;;;;;;5357197;26;20016;-91
2024/04/14 08:38:20;;;;;;;33.67;31.33;;;25.40;99.90;;;;;;5356958;26;20016;-92
2024/04/14 08:40:54;;;;;;;34.63;31.92;;;25.60;99.90;;;;;;5357779;26;20032;-90
2024/04/14 08:43:21;;;;;;;33.55;31.13;;;25.70;99.90;;;;;;5357126;26;20000;-90
2024/04/14 08:45:52;;;;;;;33.90;31.30;;;25.60;99.90;;;;;;5347395;26;20019;-90
2024/04/14 08:48:20;;;;;;;33.17;30.45;;;25.50;99.90;;;;;;5356369;26;19996;-91
2024/04/14 08:50:51;;;;;;;32.08;29.65;;;25.50;99.90;;;;;;5355840;26;20000;-91
2024/04/14 08:53:24;;;;;;;32.90;30.30;;;25.30;99.90;;;;;;5356663;26;20016;-91
2024/04/14 08:55:50;;;;;;;31.95;29.42;;;24.90;99.90;;;;;;5356909;26;20000;-90
2024/04/14 08:58:20;;;;;;;32.00;29.23;;;25.00;99.90;;;;;;5357702;26;20004;-90
2024/04/14 09:00:56;;;;;;;32.47;29.70;;;25.30;99.90;;;;;;5358199;26;20027;-88
2024/04/14 09:03:23;;;;;;;33.72;30.67;;;25.30;99.90;;;;;;5366650;26;20016;-92
2024/04/14 09:05:52;;;;;;;33.72;31.23;;;25.60;99.90;;;;;;5350853;26;20026;-94
2024/04/14 09:08:20;;;;;;;33.80;31.30;;;25.30;99.90;;;;;;5388428;26;20012;-93
2024/04/14 09:10:47;;;;;;;34.70;32.05;;;25.40;99.90;;;;;;5386381;26;20004;-89
2024/04/14 09:13:14;;;;;;;34.30;31.67;;;25.30;99.90;;;;;;5356969;26;20018;-89
2024/04/14 09:15:41;;;;;;;34.55;31.90;;;25.30;99.90;;;;;;5355672;26;20004;-87
2024/04/14 09:18:07;;;;;;;34.08;31.27;;;25.50;99.90;;;;;;5356328;26;20004;-90
2024/04/14 09:20:35;;;;;;;33.95;31.52;;;25.20;99.90;;;;;;5424366;26;19995;-85
2024/04/14 09:23:17;;;;;;;35.00;32.28;;;25.10;99.90;;;;;;5396641;26;20027;-92
2024/04/14 09:25:45;;;;;;;33.47;30.92;;;25.10;99.90;;;;;;5395102;26;20003;-87
2024/04/14 09:28:11;;;;;;;33.47;30.70;;;24.80;99.90;;;;;;5393210;26;20042;-85
2024/04/14 09:30:38;;;;;;;35.05;31.85;;;24.80;99.90;;;;;;5377087;26;20007;-83
2024/04/14 09:33:05;;;;;;;33.67;31.15;;;24.90;99.90;;;;;;5355526;26;20011;-85
2024/04/14 09:35:34;;;;;;;33.95;30.65;;;25.10;99.90;;;;;;5353006;26;19997;-85
2024/04/14 09:38:02;;;;;;;33.80;31.10;;;25.30;99.90;;;;;;5351807;26;20347;-86
2024/04/14 09:40:34;;;;;;;32.63;30.13;;;25.10;99.90;;;;;;5399047;26;20453;-84
2024/04/14 09:43:02;;;;;;;32.45;29.77;;;25.10;99.90;;;;;;5323434;26;20012;-85
2024/04/14 09:45:31;;;;;;;33.08;30.65;;;24.80;99.90;;;;;;5323431;26;20010;-85
2024/04/14 09:48:00;;;;;;;33.85;30.80;;;24.90;99.90;;;;;;5322910;26;20003;-85
2024/04/14 09:50:27;;;;;;;33.83;30.98;;;24.80;99.90;;;;;;5374951;26;20058;-87
2024/04/14 09:52:56;;;;;;;33.30;30.50;;;25.10;99.90;;;;;;5352876;26;20014;-86
2024/04/14 09:55:41;;;;;;;32.58;30.08;;;25.10;99.90;;;;;;5351710;26;20028;-86
2024/04/14 09:58:19;;;;;;;34.30;31.30;;;25.40;99.90;;;;;;5375313;26;20012;-90
2024/04/14 10:00:46;;;;;;;33.35;30.80;;;25.20;99.90;;;;;;5320700;26;20009;-90
2024/04/14 10:03:14;;;;;;;34.08;31.42;;;25.30;99.90;;;;;;5337681;26;20005;-91
2024/04/14 10:05:41;;;;;;;34.50;31.80;;;25.10;99.90;;;;;;5355891;26;20368;-89
2024/04/14 10:08:08;;;;;;;34.03;31.27;;;25.30;99.90;;;;;;5353796;26;20008;-88
2024/04/14 10:10:35;;;;;;;35.17;32.20;;;25.70;99.90;;;;;;5347662;26;20009;-89
2024/04/14 10:13:08;;;;;;;35.42;32.65;;;25.50;99.90;;;;;;5350063;26;20071;-85
2024/04/14 10:15:36;;;;;;;34.65;32.00;;;25.40;99.90;;;;;;5348753;26;19993;-89
2024/04/14 10:18:15;;;;;;;34.95;32.03;;;25.30;99.90;;;;;;5361908;26;20000;-88
2024/04/14 10:20:44;;;;;;;34.25;31.73;;;25.20;99.90;;;;;;5320878;26;20001;-89
2024/04/14 10:23:18;;;;;;;34.38;31.77;;;25.30;99.90;;;;;;5321458;26;20508;-90
2024/04/14 10:25:49;;;;;;;33.47;30.67;;;25.30;99.90;;;;;;5323828;26;20001;-91
2024/04/14 10:28:20;;;;;;;34.70;31.88;;;25.60;99.90;;;;;;5322218;26;20012;-91
2024/04/14 10:30:50;;;;;;;33.47;30.63;;;25.70;99.90;;;;;;5321907;26;20005;-90
2024/04/14 10:33:21;;;;;;;34.00;31.20;;;25.80;99.90;;;;;;5344454;26;20000;-86
2024/04/14 10:36:04;;;;;;;33.75;30.95;;;25.80;99.90;;;;;;5383662;26;20023;-90
2024/04/14 10:38:32;;;;;;;32.58;30.08;;;25.80;99.90;;;;;;5353645;26;19997;-88
2024/04/14 10:40:59;;;;;;;34.70;31.75;;;25.70;99.90;;;;;;5353786;26;20000;-91
2024/04/14 10:43:26;;;;;;;33.78;30.88;;;25.70;99.90;;;;;;5367367;26;20000;-87
2024/04/14 10:45:53;;;;;;;34.42;31.80;;;25.90;99.90;;;;;;5346883;26;20442;-87
2024/04/14 10:48:20;;;;;;;34.80;32.20;;;26.20;99.90;;;;;;5355803;26;20004;-91
2024/04/14 10:50:46;;;;;;;35.58;32.33;;;25.90;99.90;;;;;;5353775;26;20004;-91
2024/04/14 10:53:13;;;;;;;35.75;32.47;;;25.90;99.90;;;;;;5353641;26;20069;-90
2024/04/14 10:55:40;;;;;;;34.75;31.55;;;25.90;99.90;;;;;;5319958;26;20342;-89
2024/04/14 10:58:06;;;;;;;34.15;31.33;;;25.90;99.90;;;;;;5347440;26;20004;-89
2024/04/14 11:00:33;;;;;;;33.78;31.27;;;25.80;99.90;;;;;;5383196;26;20000;-89
2024/04/14 11:02:59;;;;;;;34.63;31.65;;;25.80;99.90;;;;;;5388326;26;20003;-90
2024/04/14 11:05:26;;;;;;;35.00;31.83;;;25.70;99.90;;;;;;5350053;26;20004;-90
2024/04/14 11:07:53;;;;;;;33.58;30.75;;;25.80;99.90;;;;;;5347854;26;20444;-92
2024/04/14 11:10:20;;;;;;;33.70;31.17;;;25.70;99.90;;;;;;5347541;26;20004;-86
2024/04/14 11:12:47;;;;;;;33.33;30.65;;;25.80;99.90;;;;;;5348358;26;20011;-90
2024/04/14 11:15:14;;;;;;;32.42;30.20;;;25.90;99.90;;;;;;5370302;26;20005;-91
2024/04/14 11:17:42;;;;;;;34.83;31.67;;;25.80;99.90;;;;;;5318019;26;20342;-89
2024/04/14 11:20:13;;;;;;;34.30;31.50;;;25.70;99.90;;;;;;5367233;26;20004;-87
2024/04/14 11:22:44;;;;;;;34.00;31.27;;;25.80;99.90;;;;;;5347160;26;20013;-87
2024/04/14 11:25:12;;;;;;;34.35;31.30;;;26.00;99.90;;;;;;5347317;26;20001;-87
2024/04/14 11:27:38;;;;;;;35.30;32.05;;;25.90;99.90;;;;;;5322471;26;20048;-87
2024/04/14 11:30:05;;;;;;;34.97;32.13;;;26.00;99.90;;;;;;5352541;26;20011;-88
2024/04/14 11:32:36;;;;;;;34.83;31.92;;;25.90;99.90;;;;;;5352154;26;20000;-83
2024/04/14 11:35:06;;;;;;;34.33;31.40;;;25.90;99.90;;;;;;5344748;26;20055;-87
2024/04/14 11:37:34;;;;;;;35.08;31.85;;;25.80;99.90;;;;;;5333780;26;20012;-84
2024/04/14 11:40:01;;;;;;;34.28;31.63;;;26.00;99.90;;;;;;5374383;26;20037;-88
2024/04/14 11:42:28;;;;;;;35.20;32.15;;;26.20;99.90;;;;;;5387766;26;19996;-87
2024/04/14 11:44:59;;;;;;;34.05;31.13;;;26.20;99.90;;;;;;5388654;26;19999;-86
2024/04/14 11:47:26;;;;;;;34.38;31.58;;;26.00;99.90;;;;;;5389854;26;20073;-91
2024/04/14 11:49:52;;;;;;;33.97;31.27;;;26.20;99.90;;;;;;5367589;26;20011;-89
2024/04/14 11:52:19;;;;;;;34.30;31.70;;;26.00;99.90;;;;;;5355383;26;20023;-90
2024/04/14 11:54:48;;;;;;;34.33;31.65;;;25.80;99.90;;;;;;5352651;26;20058;-86
2024/04/14 11:57:15;;;;;;;34.83;32.03;;;25.80;99.90;;;;;;5353908;26;20001;-85
2024/04/14 11:59:42;;;;;;;35.08;32.28;;;25.70;99.90;;;;;;5352398;26;20004;-86
2024/04/14 12:02:08;;;;;;;34.90;32.00;;;25.80;99.90;;;;;;5351380;26;20008;-86
2024/04/14 12:04:34;;;;;;;35.72;32.78;;;25.80;99.90;;;;;;5351762;26;20011;-89
2024/04/14 12:07:01;;;;;;;35.08;32.25;;;26.10;99.90;;;;;;5354498;26;20074;-88
2024/04/14 12:09:27;;;;;;;35.15;32.45;;;26.00;99.90;;;;;;5353070;26;20004;-86
2024/04/14 12:11:53;;;;;;;34.92;32.30;;;26.10;99.90;;;;;;5380881;26;20078;-87
2024/04/14 12:14:20;;;;;;;34.92;32.33;;;26.00;99.90;;;;;;5381070;26;20007;-88
2024/04/14 12:16:47;;;;;;;35.40;32.33;;;26.00;99.90;;;;;;5351310;26;20434;-85
2024/04/14 12:19:14;;;;;;;34.50;31.30;;;26.10;99.90;;;;;;5350795;26;20005;-86
2024/04/14 12:21:40;;;;;;;34.67;31.95;;;26.10;99.90;;;;;;5351106;26;20008;-86
2024/04/14 12:24:07;;;;;;;34.65;31.65;;;26.10;99.90;;;;;;5351373;26;20000;-85
2024/04/14 12:26:33;;;;;;;33.97;31.35;;;26.20;99.90;;;;;;5352579;26;20078;-88
2024/04/14 12:28:59;;;;;;;34.50;31.90;;;26.40;99.90;;;;;;5355251;26;20011;-89